Time;durP1;ratioP1;P1;durP2;ratioP2;P2;SDS_P1;SDS_P2;PMS_P1;PMS_P2;Temp;Humidity;BMP_temperature;BMP_pressure;BME280_temperature;BME280_humidity;BME280_pressure;Samples;Min_cycle;Max_cycle;Signal;HPM_P1;HPM_P2
2022/03/13 00:00:39;;;;;;;;;10.50;8.00;;;;;11.15;100.00;100798.16;5077771;27;45829;-78
2022/03/13 00:03:09;;;;;;;;;8.75;7.00;;;;;11.14;100.00;100790.31;5076670;28;45343;-78
2022/03/13 00:05:41;;;;;;;;;6.75;6.75;;;;;11.13;100.00;100786.84;5092274;27;45377;-78
2022/03/13 00:08:18;;;;;;;;;8.00;8.00;;;;;11.22;100.00;100790.63;5079660;27;45348;-78
2022/03/13 00:10:47;;;;;;;;;9.25;9.25;;;;;11.09;100.00;100761.59;5076618;27;45488;-78
2022/03/13 00:13:18;;;;;;;;;9.00;8.25;;;;;11.15;100.00;100776.53;5078258;27;45196;-79
2022/03/13 00:15:44;;;;;;;;;9.50;8.25;;;;;11.25;100.00;100786.44;5095872;27;45323;-80
2022/03/13 00:18:11;;;;;;;;;7.75;6.75;;;;;11.27;100.00;100787.41;5077621;27;45903;-79
2022/03/13 00:20:38;;;;;;;;;9.25;8.00;;;;;11.19;100.00;100772.34;5085294;27;45789;-79
2022/03/13 00:23:05;;;;;;;;;7.25;6.75;;;;;11.20;100.00;100777.63;5092866;27;45542;-79
2022/03/13 00:25:30;;;;;;;;;12.00;7.50;;;;;11.11;100.00;100752.19;5077445;27;45396;-80
2022/03/13 00:27:56;;;;;;;;;9.25;8.00;;;;;11.31;100.00;100785.81;5088859;27;45463;-80
2022/03/13 00:30:23;;;;;;;;;12.50;8.00;;;;;11.07;100.00;100736.47;5084088;27;45456;-80
2022/03/13 00:32:49;;;;;;;;;8.75;8.25;;;;;11.22;100.00;100764.72;5090773;27;45329;-82
2022/03/13 00:35:14;;;;;;;;;7.00;7.00;;;;;11.31;100.00;100775.44;5077815;27;45345;-80
2022/03/13 00:37:40;;;;;;;;;9.75;8.00;;;;;11.33;100.00;100773.81;5086565;27;46457;-83
2022/03/13 00:40:06;;;;;;;;;8.25;7.25;;;;;11.43;100.00;100778.56;5088917;27;45459;-84
2022/03/13 00:42:32;;;;;;;;;6.50;6.50;;;;;11.36;100.00;100766.19;5077283;27;45406;-80
2022/03/13 00:45:00;;;;;;;;;9.00;6.50;;;;;11.24;100.00;100739.75;5088855;27;45630;-81
2022/03/13 00:47:25;;;;;;;;;8.00;8.00;;;;;11.33;100.00;100753.09;5077141;27;45442;-81
2022/03/13 00:49:51;;;;;;;;;8.50;8.50;;;;;11.46;100.00;100768.31;5086678;27;45340;-81
2022/03/13 00:52:17;;;;;;;;;6.50;6.50;;;;;11.51;100.00;100772.78;5095233;27;45301;-81
2022/03/13 00:54:43;;;;;;;;;6.00;6.00;;;;;11.49;100.00;100770.13;5078637;27;45591;-79
2022/03/13 00:57:09;;;;;;;;;6.00;6.00;;;;;11.49;100.00;100762.38;5079214;27;45459;-81
2022/03/13 00:59:35;;;;;;;;;8.25;7.00;;;;;11.44;100.00;100748.34;5082909;27;45772;-80
2022/03/13 01:02:01;;;;;;;;;7.25;7.00;;;;;11.42;100.00;100752.56;5088952;27;45172;-81
2022/03/13 01:04:27;;;;;;;;;6.25;6.25;;;;;11.51;100.00;100765.91;5079273;27;45223;-80
2022/03/13 01:06:53;;;;;;;;;6.75;6.75;;;;;11.48;100.00;100764.91;5084438;27;45504;-81
2022/03/13 01:09:18;;;;;;;;;8.00;8.00;;;;;11.26;100.00;100727.75;5078761;27;45413;-81
2022/03/13 01:11:44;;;;;;;;;6.75;6.00;;;;;11.45;100.00;100758.78;5075770;27;45442;-79
2022/03/13 01:14:10;;;;;;;;;6.75;5.50;;;;;11.42;100.00;100752.56;5075167;28;45329;-80
2022/03/13 01:16:39;;;;;;;;;6.50;5.50;;;;;11.11;100.00;100699.50;5093883;27;46483;-81
2022/03/13 01:19:06;;;;;;;;;6.75;4.00;;;;;11.42;100.00;100750.84;5091214;27;45295;-81
2022/03/13 01:21:34;;;;;;;;;6.25;6.00;;;;;11.29;100.00;100725.25;5088513;27;45275;-79
2022/03/13 01:23:59;;;;;;;;;6.25;5.75;;;;;11.48;100.00;100741.56;5059232;28;45272;-82
2022/03/13 01:26:25;;;;;;;;;7.75;7.00;;;;;11.50;100.00;100751.16;5080765;27;45333;-80
2022/03/13 01:28:55;;;;;;;;;8.00;6.75;;;;;11.50;100.00;100739.94;5093752;27;45496;-81
2022/03/13 01:31:26;;;;;;;;;4.75;4.75;;;;;11.46;100.00;100723.34;5082218;27;45367;-81
2022/03/13 01:33:52;;;;;;;;;6.25;5.00;;;;;11.50;100.00;100722.66;5093381;27;45502;-79
2022/03/13 01:36:17;;;;;;;;;4.50;4.50;;;;;11.56;100.00;100733.25;5082604;27;45919;-80
2022/03/13 01:38:43;;;;;;;;;6.75;4.75;;;;;11.55;100.00;100717.66;5089945;27;45517;-80
2022/03/13 01:41:09;;;;;;;;;5.00;5.00;;;;;11.60;100.00;100729.09;5101196;27;45257;-79
2022/03/13 01:43:35;;;;;;;;;5.75;3.00;;;;;11.57;100.00;100721.19;5109319;27;45325;-80
2022/03/13 01:46:03;;;;;;;;;6.75;6.00;;;;;11.58;100.00;100728.16;5090091;27;46322;-80
2022/03/13 01:48:30;;;;;;;;;8.25;5.50;;;;;11.57;100.00;100732.44;5079739;27;45404;-82
2022/03/13 01:50:56;;;;;;;;;6.75;6.00;;;;;11.56;100.00;100732.38;5078907;27;45441;-84
2022/03/13 01:53:21;;;;;;;;;5.25;4.00;;;;;11.58;100.00;100721.25;5079365;27;45656;-84
2022/03/13 01:55:55;;;;;;;;;6.50;5.00;;;;;11.60;100.00;100710.94;5078255;27;45849;-82
2022/03/13 01:58:22;;;;;;;;;5.00;5.00;;;;;11.59;100.00;100704.00;5078855;27;45357;-86
2022/03/13 02:00:48;;;;;;;;;5.50;5.00;;;;;11.59;100.00;100701.41;5075126;27;45300;-84
2022/03/13 02:03:18;;;;;;;;;4.50;4.50;;;;;11.51;100.00;100690.72;5092014;27;45539;-82
2022/03/13 02:05:45;;;;;;;;;5.25;4.75;;;;;11.52;100.00;100689.91;5080252;27;45436;-83
2022/03/13 02:08:16;;;;;;;;;7.25;7.00;;;;;11.59;100.00;100704.00;5083507;27;45417;-80
2022/03/13 02:10:42;;;;;;;;;4.00;4.00;;;;;11.60;100.00;100701.44;5096089;27;45532;-80
2022/03/13 02:13:10;;;;;;;;;5.25;4.00;;;;;11.54;100.00;100680.47;5080545;27;45568;-83
2022/03/13 02:15:37;;;;;;;;;6.00;5.25;;;;;11.48;100.00;100669.84;5078298;27;45381;-82
2022/03/13 02:18:04;;;;;;;;;5.75;4.50;;;;;11.65;100.00;100680.88;5078692;27;45826;-82
2022/03/13 02:20:34;;;;;;;;;5.00;5.00;;;;;11.63;100.00;100666.97;5089076;27;45321;-83
2022/03/13 02:23:01;;;;;;;;;4.00;4.00;;;;;11.56;100.00;100654.59;5099885;27;45235;-79
2022/03/13 02:25:31;;;;;;;;;6.75;5.25;;;;;11.61;100.00;100666.91;5087649;27;45493;-79
2022/03/13 02:27:58;;;;;;;;;6.25;5.50;;;;;11.64;100.00;100681.69;5086127;27;45389;-78
2022/03/13 02:30:26;;;;;;;;;4.75;4.00;;;;;11.65;100.00;100682.59;5080854;27;45597;-78
2022/03/13 02:32:53;;;;;;;;;4.25;2.75;;;;;11.50;100.00;100647.47;5096934;27;45616;-79
2022/03/13 02:35:20;;;;;;;;;6.00;4.50;;;;;11.55;100.00;100658.00;5091435;27;45917;-78
2022/03/13 02:37:47;;;;;;;;;7.00;7.00;;;;;11.60;100.00;100670.31;5078847;27;45273;-78
2022/03/13 02:40:22;;;;;;;;;8.25;6.00;;;;;11.59;100.00;100670.28;5084628;27;45301;-79
2022/03/13 02:42:48;;;;;;;;;5.00;5.00;;;;;11.57;100.00;100661.56;5086475;27;45157;-80
2022/03/13 02:45:35;;;;;;;;;4.75;4.75;;;;;11.46;100.00;100649.06;5081682;27;46164;-79
2022/03/13 02:48:03;;;;;;;;;4.75;4.00;;;;;11.44;100.00;100642.06;5087876;27;45271;-78
2022/03/13 02:50:29;;;;;;;;;6.50;6.25;;;;;11.45;100.00;100648.97;5076256;28;45781;-79
2022/03/13 02:52:55;;;;;;;;;7.00;5.75;;;;;11.45;100.00;100646.38;5077877;27;45303;-79
2022/03/13 02:55:20;;;;;;;;;7.00;6.00;;;;;11.38;100.00;100641.81;5080673;27;46161;-78
2022/03/13 02:57:46;;;;;;;;;6.00;5.00;;;;;11.27;100.00;100634.50;5091616;27;45305;-79
2022/03/13 03:00:13;;;;;;;;;5.00;5.00;;;;;11.35;100.00;100647.75;5085018;27;45489;-80
2022/03/13 03:02:38;;;;;;;;;5.25;5.25;;;;;11.18;100.00;100628.06;5085999;27;45227;-79
2022/03/13 03:05:06;;;;;;;;;7.25;6.25;;;;;11.34;100.00;100652.91;5088183;27;46130;-79
2022/03/13 03:07:32;;;;;;;;;5.50;4.00;;;;;11.35;100.00;100650.34;5096105;27;45371;-79
2022/03/13 03:09:58;;;;;;;;;5.75;5.50;;;;;11.32;100.00;100644.16;5096052;27;45403;-78
2022/03/13 03:12:24;;;;;;;;;4.75;4.00;;;;;11.27;100.00;100633.63;5093157;27;45321;-78
2022/03/13 03:14:50;;;;;;;;;5.75;5.75;;;;;11.35;100.00;100642.56;5077129;27;45333;-78
2022/03/13 03:17:16;;;;;;;;;6.75;5.25;;;;;11.32;100.00;100647.63;5077388;27;45380;-81
2022/03/13 03:19:42;;;;;;;;;7.50;6.25;;;;;11.22;100.00;100629.97;5076589;27;45208;-79
2022/03/13 03:22:08;;;;;;;;;5.00;5.00;;;;;11.06;100.00;100611.22;5078201;27;45235;-79
2022/03/13 03:24:34;;;;;;;;;7.00;6.00;;;;;11.11;100.00;100624.38;5080146;27;46256;-81
2022/03/13 03:27:00;;;;;;;;;7.00;7.00;;;;;11.14;100.00;100632.25;5077279;27;45521;-79
2022/03/13 03:29:26;;;;;;;;;4.75;4.75;;;;;10.98;100.00;100620.38;5078315;27;45600;-80
2022/03/13 03:31:53;;;;;;;;;6.50;5.00;;;;;11.06;100.00;100625.88;5082797;27;45616;-79
2022/03/13 03:34:21;;;;;;;;;7.25;6.25;;;;;10.92;100.00;100613.25;5080692;27;45363;-80
2022/03/13 03:37:08;;;;;;;;;6.75;5.00;;;;;11.05;100.00;100631.88;5080799;27;45679;-84
2022/03/13 03:39:34;;;;;;;;;4.00;4.00;;;;;10.94;100.00;100616.78;5090898;27;45330;-84
2022/03/13 03:42:02;;;;;;;;;5.50;5.50;;;;;11.02;100.00;100629.16;5096962;27;45557;-82
2022/03/13 03:44:27;;;;;;;;;5.00;5.00;;;;;11.01;100.00;100620.50;5096143;27;45854;-84
2022/03/13 03:46:55;;;;;;;;;5.50;5.00;;;;;10.97;100.00;100621.19;5097504;27;45244;-82
2022/03/13 03:49:20;;;;;;;;;5.25;5.25;;;;;10.91;100.00;100620.97;5080904;27;45512;-84
2022/03/13 03:51:46;;;;;;;;;5.75;5.75;;;;;10.98;100.00;100620.38;5092547;27;45553;-83
2022/03/13 03:54:14;;;;;;;;;7.50;6.00;;;;;10.94;100.00;100618.50;5078554;27;45826;-84
2022/03/13 03:56:40;;;;;;;;;4.75;4.75;;;;;10.98;100.00;100618.69;5091795;27;45361;-84
2022/03/13 03:59:07;;;;;;;;;5.50;4.00;;;;;10.93;100.00;100617.63;5095584;27;45478;-81
2022/03/13 04:01:40;;;;;;;;;5.25;5.25;;;;;10.88;100.00;100626.00;5095355;27;45665;-80
2022/03/13 04:04:08;;;;;;;;;6.75;4.00;;;;;10.87;100.00;100626.84;5087771;27;45429;-81
2022/03/13 04:06:38;;;;;;;;;5.50;4.50;;;;;10.55;100.00;100572.03;5086221;27;45421;-81
2022/03/13 04:09:05;;;;;;;;;3.25;3.25;;;;;10.75;100.00;100603.94;5077763;27;45291;-81
2022/03/13 04:11:31;;;;;;;;;5.50;5.25;;;;;10.85;100.00;100624.19;5065146;27;45358;-80
2022/03/13 04:13:57;;;;;;;;;7.50;6.50;;;;;10.86;100.00;100630.25;5086785;27;45928;-79
2022/03/13 04:16:22;;;;;;;;;6.50;6.00;;;;;10.83;100.00;100629.31;5086520;27;46480;-81
2022/03/13 04:18:48;;;;;;;;;5.75;5.75;;;;;10.84;100.00;100630.19;5076708;27;45405;-80
2022/03/13 04:21:13;;;;;;;;;6.00;5.75;;;;;10.82;100.00;100629.25;5082125;27;45586;-83
2022/03/13 04:23:39;;;;;;;;;4.50;4.50;;;;;10.84;100.00;100638.88;5076591;27;45373;-80
2022/03/13 04:26:05;;;;;;;;;7.00;4.50;;;;;10.84;100.00;100645.72;5078654;27;45463;-80
2022/03/13 04:28:32;;;;;;;;;4.25;4.25;;;;;10.84;100.00;100650.91;5090427;27;45420;-81
2022/03/13 04:30:59;;;;;;;;;7.00;6.00;;;;;10.76;100.00;100634.19;5093605;27;45446;-80
2022/03/13 04:33:28;;;;;;;;;6.00;6.00;;;;;10.82;100.00;100642.19;5076234;28;46106;-79
2022/03/13 04:36:00;;;;;;;;;5.50;5.25;;;;;10.86;100.00;100645.78;5076091;27;45281;-82
2022/03/13 04:38:27;;;;;;;;;6.00;5.00;;;;;10.72;100.00;100612.47;5076597;27;45337;-81
2022/03/13 04:40:55;;;;;;;;;5.25;5.00;;;;;10.86;100.00;100633.75;5076462;27;45414;-80
2022/03/13 04:43:22;;;;;;;;;7.75;5.75;;;;;10.86;100.00;100630.25;5076045;27;45392;-79
2022/03/13 04:45:49;;;;;;;;;5.00;5.00;;;;;10.87;100.00;100635.50;5075869;27;45826;-80
2022/03/13 04:48:16;;;;;;;;;6.00;5.75;;;;;10.78;100.00;100623.06;5075581;27;45361;-80
2022/03/13 04:50:42;;;;;;;;;5.25;5.25;;;;;10.74;100.00;100617.69;5081888;27;45447;-78
2022/03/13 04:53:07;;;;;;;;;6.00;5.00;;;;;10.76;100.00;100627.28;5097088;27;45523;-82
2022/03/13 04:55:33;;;;;;;;;6.25;4.75;;;;;10.73;100.00;100624.59;5088185;27;45259;-82
2022/03/13 04:57:59;;;;;;;;;5.00;5.00;;;;;10.83;100.00;100633.59;5080204;27;45429;-81
2022/03/13 05:00:26;;;;;;;;;5.00;3.00;;;;;10.76;100.00;100624.69;5080455;27;45262;-81
2022/03/13 05:02:53;;;;;;;;;6.00;4.00;;;;;10.82;100.00;100630.16;5087942;27;46226;-81
2022/03/13 05:05:18;;;;;;;;;5.00;3.50;;;;;10.76;100.00;100629.88;5099164;27;45817;-85
2022/03/13 05:07:45;;;;;;;;;6.00;3.75;;;;;10.74;100.00;100628.97;5100515;27;45617;-83
2022/03/13 05:10:11;;;;;;;;;5.25;4.75;;;;;10.74;100.00;100618.59;5101145;27;45471;-85
2022/03/13 05:12:36;;;;;;;;;3.25;3.00;;;;;10.72;100.00;100615.06;5101257;27;46092;-83
2022/03/13 05:15:03;;;;;;;;;6.50;5.00;;;;;10.66;100.00;100604.44;5094536;27;45429;-82
2022/03/13 05:17:28;;;;;;;;;3.75;3.00;;;;;10.76;100.00;100605.69;5080203;27;45453;-81
2022/03/13 05:19:55;;;;;;;;;4.00;4.00;;;;;10.74;100.00;100602.16;5079870;27;45587;-79
2022/03/13 05:22:21;;;;;;;;;2.50;2.50;;;;;10.82;100.00;100619.78;5083081;27;45652;-83
2022/03/13 05:24:46;;;;;;;;;3.50;3.50;;;;;10.77;100.00;100615.25;5097783;27;45515;-81
2022/03/13 05:27:12;;;;;;;;;3.00;3.00;;;;;10.77;100.00;100617.81;5102812;27;45226;-82
2022/03/13 05:29:38;;;;;;;;;4.25;3.25;;;;;10.69;100.00;100601.97;5108578;27;45510;-84
2022/03/13 05:32:04;;;;;;;;;3.25;2.75;;;;;10.74;100.00;100620.28;5103277;27;45452;-84
2022/03/13 05:34:29;;;;;;;;;4.75;3.75;;;;;10.66;100.00;100620.88;5102160;27;45351;-82
2022/03/13 05:36:55;;;;;;;;;3.00;3.00;;;;;10.69;100.00;100638.22;5102593;27;45325;-83
2022/03/13 05:39:20;;;;;;;;;3.00;3.00;;;;;10.59;100.00;100617.94;5098983;27;45551;-83
2022/03/13 05:41:46;;;;;;;;;4.25;3.00;;;;;10.61;100.00;100630.13;5083185;27;46041;-80
2022/03/13 05:44:12;;;;;;;;;3.00;3.00;;;;;10.63;100.00;100631.09;5089156;27;45465;-78
2022/03/13 05:46:39;;;;;;;;;4.00;2.50;;;;;10.59;100.00;100629.19;5080566;27;45554;-78
2022/03/13 05:49:05;;;;;;;;;6.00;3.50;;;;;10.64;100.00;100630.25;5079010;27;45277;-79
2022/03/13 05:51:35;;;;;;;;;2.75;2.00;;;;;10.65;100.00;100638.91;5077341;27;45376;-78
2022/03/13 05:54:01;;;;;;;;;4.00;4.00;;;;;10.62;100.00;100628.44;5077980;27;45796;-81
2022/03/13 05:56:27;;;;;;;;;4.00;4.00;;;;;10.52;100.00;100607.34;5078961;27;45303;-80
2022/03/13 05:58:52;;;;;;;;;5.50;4.25;;;;;10.61;100.00;100622.38;5078940;28;45330;-81
2022/03/13 06:01:18;;;;;;;;;3.00;2.75;;;;;10.64;100.00;100617.31;5078726;27;46216;-78
2022/03/13 06:03:43;;;;;;;;;3.75;3.75;;;;;10.58;100.00;100609.31;5081096;27;45404;-79
2022/03/13 06:06:09;;;;;;;;;4.00;2.25;;;;;10.68;100.00;100624.41;5083928;27;45368;-79
2022/03/13 06:08:37;;;;;;;;;5.00;4.00;;;;;10.58;100.00;100611.91;5077988;27;45497;-79
2022/03/13 06:11:03;;;;;;;;;3.00;3.00;;;;;10.57;100.00;100610.13;5078048;27;46266;-80
2022/03/13 06:13:29;;;;;;;;;3.25;3.25;;;;;10.62;100.00;100620.69;5079319;27;45291;-79
2022/03/13 06:15:57;;;;;;;;;3.75;3.00;;;;;10.75;99.59;100632.41;5078332;27;45463;-80
2022/03/13 06:18:23;;;;;;;;;3.00;3.00;;;;;10.72;99.31;100647.81;5084340;27;45497;-79
2022/03/13 06:20:50;;;;;;;;;2.50;2.50;;;;;10.62;99.67;100626.72;5084662;27;45487;-79
2022/03/13 06:23:16;;;;;;;;;4.00;3.00;;;;;10.49;99.83;100603.72;5096944;27;45279;-80
2022/03/13 06:25:43;;;;;;;;;3.00;3.00;;;;;10.73;99.76;100652.19;5097123;27;45342;-79
2022/03/13 06:28:10;;;;;;;;;4.75;3.25;;;;;10.73;99.51;100640.13;5098181;27;45582;-81
2022/03/13 06:30:36;;;;;;;;;2.50;1.50;;;;;10.63;98.64;100630.22;5079667;27;46099;-80
2022/03/13 06:33:02;;;;;;;;;4.00;3.50;;;;;10.66;99.20;100636.41;5080265;27;45832;-80
2022/03/13 06:35:27;;;;;;;;;3.00;3.00;;;;;10.70;98.15;100658.13;5079607;27;45450;-83
2022/03/13 06:37:54;;;;;;;;;3.25;1.75;;;;;10.65;98.28;100638.91;5080296;27;45370;-81
2022/03/13 06:40:22;;;;;;;;;2.00;2.00;;;;;10.72;98.63;100658.16;5082514;27;45420;-80
2022/03/13 06:42:50;;;;;;;;;3.50;3.50;;;;;10.68;98.15;100654.56;5100651;27;45683;-81
2022/03/13 06:45:15;;;;;;;;;3.00;2.50;;;;;10.57;98.14;100635.13;5098357;27;45428;-82
2022/03/13 06:47:46;;;;;;;;;2.75;2.75;;;;;10.72;98.10;100646.13;5083374;27;45322;-82
2022/03/13 06:50:14;;;;;;;;;2.00;2.00;;;;;10.68;96.72;100636.44;5097894;27;46329;-81
2022/03/13 06:52:39;;;;;;;;;1.00;1.00;;;;;10.72;96.34;100648.72;5096869;27;45410;-83
2022/03/13 06:55:06;;;;;;;;;2.50;2.50;;;;;10.66;97.09;100651.94;5093974;27;45592;-80
2022/03/13 06:57:33;;;;;;;;;3.75;2.00;;;;;10.71;97.37;100657.31;5084459;27;45529;-81
2022/03/13 06:59:59;;;;;;;;;2.00;2.00;;;;;10.72;97.32;100645.22;5078695;27;46011;-81
2022/03/13 07:02:25;;;;;;;;;2.25;2.25;;;;;10.73;95.61;100647.91;5089526;27;45765;-82
2022/03/13 07:04:50;;;;;;;;;3.50;2.75;;;;;10.78;96.05;100650.69;5087989;27;45329;-81
2022/03/13 07:07:16;;;;;;;;;2.25;2.25;;;;;10.82;96.32;100655.13;5096732;27;45181;-82
2022/03/13 07:09:42;;;;;;;;;3.00;3.00;;;;;10.71;95.50;100636.59;5096431;27;45350;-82
2022/03/13 07:12:11;;;;;;;;;3.00;3.00;;;;;10.79;95.17;100631.72;5096742;27;45677;-82
2022/03/13 07:14:38;;;;;;;;;7.00;5.00;;;;;10.87;95.84;100655.31;5098126;27;45297;-80
2022/03/13 07:17:04;;;;;;;;;5.00;3.00;;;;;10.82;94.14;100622.38;5097099;27;45539;-82
2022/03/13 07:19:30;;;;;;;;;2.00;2.00;;;;;10.83;92.82;100642.28;5098200;27;45467;-85
2022/03/13 07:21:55;;;;;;;;;3.00;3.00;;;;;10.90;93.87;100651.19;5101001;27;45761;-85
2022/03/13 07:24:21;;;;;;;;;2.50;2.00;;;;;10.78;93.71;100632.53;5086574;27;45340;-81
2022/03/13 07:26:46;;;;;;;;;3.00;3.00;;;;;10.87;93.57;100640.69;5090628;27;45634;-81
2022/03/13 07:29:12;;;;;;;;;3.50;2.75;;;;;10.83;93.11;100626.72;5094561;27;45342;-81
2022/03/13 07:31:39;;;;;;;;;3.25;3.00;;;;;10.86;93.11;100646.69;5094636;27;45313;-81
2022/03/13 07:34:04;;;;;;;;;3.00;3.00;;;;;10.68;93.96;100616.63;5095538;27;45604;-83
2022/03/13 07:36:31;;;;;;;;;3.50;2.50;;;;;10.77;93.63;100635.97;5092828;27;45425;-81
2022/03/13 07:38:57;;;;;;;;;2.00;2.00;;;;;10.82;92.44;100647.38;5080711;27;45448;-79
2022/03/13 07:41:23;;;;;;;;;4.00;2.00;;;;;10.88;92.30;100655.41;5077394;27;45517;-82
2022/03/13 07:43:48;;;;;;;;;2.00;2.00;;;;;10.86;90.08;100643.19;5076521;27;45547;-78
2022/03/13 07:46:23;;;;;;;;;2.00;2.00;;;;;10.73;91.42;100639.22;5090901;27;45464;-78
2022/03/13 07:48:48;;;;;;;;;1.00;1.00;;;;;10.86;91.13;100672.59;5094714;27;46213;-77
2022/03/13 07:51:14;;;;;;;;;3.00;3.00;;;;;10.77;90.48;100646.31;5077444;27;45464;-79
2022/03/13 07:53:40;;;;;;;;;3.00;3.00;;;;;10.84;89.59;100651.81;5080554;27;46866;-80
2022/03/13 07:56:06;;;;;;;;;1.75;1.50;;;;;10.81;88.58;100651.69;5097297;27;45560;-77
2022/03/13 07:58:32;;;;;;;;;2.50;2.25;;;;;10.88;89.49;100663.19;5078170;27;45723;-80
2022/03/13 08:00:58;;;;;;;;;4.75;3.75;;;;;10.88;89.91;100652.81;5078656;27;45845;-79
2022/03/13 08:03:29;;;;;;;;;1.00;1.00;;;;;10.90;88.68;100661.53;5076628;27;45408;-80
2022/03/13 08:05:56;;;;;;;;;4.00;4.00;;;;;10.92;87.91;100661.59;5074373;27;45440;-80
2022/03/13 08:08:22;;;;;;;;;4.00;3.00;;;;;10.95;88.17;100664.31;5077216;27;45445;-77
2022/03/13 08:10:48;;;;;;;;;2.00;2.00;;;;;10.95;87.54;100662.59;5076199;28;45307;-79
2022/03/13 08:13:13;;;;;;;;;3.00;3.00;;;;;11.01;88.26;100654.19;5078551;27;45654;-75
2022/03/13 08:15:39;;;;;;;;;3.00;3.00;;;;;11.06;88.06;100647.50;5076545;27;45643;-75
2022/03/13 08:18:05;;;;;;;;;1.75;1.75;;;;;11.09;87.62;100651.91;5081036;27;46109;-75
2022/03/13 08:20:30;;;;;;;;;1.75;1.75;;;;;11.04;87.78;100636.19;5076199;28;45350;-84
2022/03/13 08:22:56;;;;;;;;;3.50;1.00;;;;;11.15;87.27;100659.91;5075769;27;45484;-83
2022/03/13 08:25:24;;;;;;;;;3.00;3.00;;;;;11.21;86.88;100662.78;5092861;27;45501;-78
2022/03/13 08:27:49;;;;;;;;;2.75;2.75;;;;;11.22;86.62;100654.19;5075527;27;46182;-75
2022/03/13 08:30:15;;;;;;;;;2.75;2.75;;;;;11.26;86.04;100650.88;5075921;28;45282;-78
2022/03/13 08:32:40;;;;;;;;;3.00;1.50;;;;;11.24;87.00;100642.16;5091215;27;45312;-79
2022/03/13 08:35:08;;;;;;;;;3.00;3.00;;;;;11.32;85.51;100645.03;5075742;27;45473;-78
2022/03/13 08:37:34;;;;;;;;;6.50;2.00;;;;;11.42;86.24;100649.75;5078056;27;46449;-78
2022/03/13 08:39:59;;;;;;;;;2.00;2.00;;;;;11.43;84.59;100655.84;5086618;27;45381;-80
2022/03/13 08:42:25;;;;;;;;;3.50;3.50;;;;;11.46;84.61;100640.38;5096647;27;45361;-78
2022/03/13 08:44:51;;;;;;;;;4.00;4.00;;;;;11.43;84.81;100641.16;5090028;27;45384;-89
2022/03/13 08:47:17;;;;;;;;;3.00;3.00;;;;;11.51;84.93;100635.38;5076698;28;45446;-80
2022/03/13 08:49:42;;;;;;;;;3.00;3.00;;;;;11.50;85.04;100623.25;5075471;28;45757;-78
2022/03/13 08:52:08;;;;;;;;;2.00;2.00;;;;;11.54;84.75;100615.66;5074155;28;45333;-77
2022/03/13 08:54:34;;;;;;;;;3.50;3.00;;;;;11.70;84.39;100634.38;5074265;27;45943;-78
2022/03/13 08:56:59;;;;;;;;;1.50;1.50;;;;;11.80;83.74;100646.84;5076384;27;45843;-73
2022/03/13 08:59:25;;;;;;;;;3.00;2.00;;;;;11.87;82.58;100641.06;5074798;27;45305;-75
2022/03/13 09:01:51;;;;;;;;;5.00;3.00;;;;;11.93;82.08;100624.84;5074758;28;45468;-73
2022/03/13 09:04:17;;;;;;;;;3.25;3.25;;;;;12.00;81.20;100629.47;5075466;27;45362;-74
2022/03/13 09:06:43;;;;;;;;;1.50;1.50;;;;;12.03;80.06;100634.75;5090997;27;48343;-74
2022/03/13 09:09:12;;;;;;;;;24.75;17.50;;;;;12.07;81.21;100635.75;5075118;27;45981;-76
2022/03/13 09:11:38;;;;;;;;;4.50;3.00;;;;;12.08;79.92;100633.19;5076472;27;45433;-77
2022/03/13 09:14:04;;;;;;;;;2.00;2.00;;;;;12.14;78.42;100648.09;5076889;27;45665;-74
2022/03/13 09:16:32;;;;;;;;;1.75;1.25;;;;;12.14;78.54;100649.84;5075064;28;45996;-74
2022/03/13 09:18:58;;;;;;;;;5.50;3.00;;;;;12.18;78.56;100652.59;5074564;28;45334;-74
2022/03/13 09:21:24;;;;;;;;;3.25;3.00;;;;;12.18;78.25;100651.69;5074131;28;45358;-75
2022/03/13 09:23:50;;;;;;;;;1.75;1.75;;;;;12.21;77.66;100647.50;5074888;27;45517;-73
2022/03/13 09:26:15;;;;;;;;;1.75;1.50;;;;;12.22;78.32;100636.28;5074281;27;46059;-74
2022/03/13 09:28:41;;;;;;;;;1.50;1.50;;;;;12.31;78.00;100645.25;5074464;27;45434;-75
2022/03/13 09:31:08;;;;;;;;;3.00;2.00;;;;;12.36;77.77;100652.34;5074737;27;45415;-73
2022/03/13 09:33:34;;;;;;;;;2.75;1.50;;;;;12.43;76.43;100649.97;5074813;27;45310;-74
2022/03/13 09:35:59;;;;;;;;;1.00;1.00;;;;;12.42;76.36;100654.25;5073813;27;45563;-75
2022/03/13 09:38:25;;;;;;;;;2.00;2.00;;;;;12.43;75.95;100640.44;5074676;27;45426;-73
2022/03/13 09:40:51;;;;;;;;;1.00;1.00;;;;;12.50;75.89;100657.13;5075952;27;45347;-74
2022/03/13 09:43:19;;;;;;;;;1.00;1.00;;;;;12.49;75.66;100639.78;5078612;27;45249;-73
2022/03/13 09:45:46;;;;;;;;;2.75;2.50;;;;;12.52;76.03;100650.28;5077733;27;46482;-75
2022/03/13 09:48:15;;;;;;;;;0.75;0.75;;;;;12.52;75.39;100658.06;5078487;27;45808;-75
2022/03/13 09:50:42;;;;;;;;;2.25;2.00;;;;;12.56;75.86;100670.34;5078455;27;45280;-75
2022/03/13 09:53:08;;;;;;;;;2.00;2.00;;;;;12.56;75.75;100666.84;5077985;27;45543;-75
2022/03/13 09:55:34;;;;;;;;;3.25;2.50;;;;;12.61;76.19;100668.78;5077578;27;46274;-74
2022/03/13 09:58:00;;;;;;;;;3.00;2.75;;;;;12.60;76.19;100658.34;5075995;27;45531;-73
2022/03/13 10:00:26;;;;;;;;;1.00;1.00;;;;;12.68;75.83;100675.06;5077837;27;45402;-73
2022/03/13 10:02:56;;;;;;;;;2.75;2.00;;;;;12.65;76.17;100668.06;5077673;27;45316;-74
2022/03/13 10:05:23;;;;;;;;;2.00;2.00;;;;;12.73;76.36;100675.22;5077559;27;45319;-74
2022/03/13 10:07:49;;;;;;;;;3.50;3.50;;;;;12.78;77.07;100676.25;5076062;28;45929;-74
2022/03/13 10:10:15;;;;;;;;;2.00;2.00;;;;;12.80;77.05;100679.78;5077466;27;45460;-75
2022/03/13 10:12:41;;;;;;;;;3.00;2.00;;;;;12.90;77.08;100676.69;5077513;27;45410;-75
2022/03/13 10:15:08;;;;;;;;;4.00;3.00;;;;;12.90;76.53;100665.38;5076435;27;45549;-74
2022/03/13 10:17:36;;;;;;;;;1.00;1.00;;;;;12.96;76.41;100670.75;5077591;27;45402;-74
2022/03/13 10:20:21;;;;;;;;;1.25;1.00;;;;;13.01;77.31;100666.63;5076768;27;45269;-74
2022/03/13 10:22:49;;;;;;;;;2.00;2.00;;;;;13.06;76.91;100664.16;5077273;27;45252;-75
2022/03/13 10:25:29;;;;;;;;;2.00;2.00;;;;;13.14;77.55;100663.59;5076925;28;46557;-74
2022/03/13 10:28:18;;;;;;;;;3.50;3.00;;;;;13.22;77.31;100656.03;5076527;27;45893;-74
2022/03/13 10:30:47;;;;;;;;;6.00;4.75;;;;;13.30;77.01;100653.66;5076767;27;45253;-74
2022/03/13 10:33:13;;;;;;;;;4.50;4.50;;;;;13.32;77.35;100645.09;5077395;27;45398;-74
2022/03/13 10:35:39;;;;;;;;;3.00;3.00;;;;;13.40;77.68;100644.47;5076478;27;45578;-74
2022/03/13 10:38:19;;;;;;;;;0.75;0.75;;;;;13.42;77.57;100653.19;5076218;28;45200;-74
2022/03/13 10:40:49;;;;;;;;;4.00;2.25;;;;;13.47;76.72;100646.41;5076353;27;45376;-75
2022/03/13 10:43:19;;;;;;;;;4.25;3.25;;;;;13.51;76.53;100637.88;5076397;27;45341;-74
2022/03/13 10:45:51;;;;;;;;;2.00;2.00;;;;;13.49;76.37;100636.06;5076065;27;45485;-79
2022/03/13 10:48:24;;;;;;;;;3.25;2.75;;;;;13.48;76.99;100629.09;5076615;28;45380;-78
2022/03/13 10:50:51;;;;;;;;;1.00;1.00;;;;;13.46;76.43;100629.94;5076727;28;45337;-76
2022/03/13 10:53:21;;;;;;;;;7.25;7.00;;;;;13.44;76.72;100635.94;5077157;27;45333;-78
2022/03/13 10:56:10;;;;;;;;;6.00;5.00;;;;;13.46;76.49;100636.84;5076583;27;45325;-77
2022/03/13 10:58:41;;;;;;;;;3.00;3.00;;;;;13.46;75.64;100629.03;5076629;27;45365;-77
2022/03/13 11:01:12;;;;;;;;;3.00;2.00;;;;;13.45;76.05;100635.06;5077083;27;45365;-77
2022/03/13 11:03:59;;;;;;;;;1.00;1.00;;;;;13.43;75.98;100628.97;5077629;28;45584;-78
2022/03/13 11:06:26;;;;;;;;;1.50;1.50;;;;;13.39;75.54;100624.47;5076123;27;45746;-78
2022/03/13 11:08:55;;;;;;;;;2.50;2.50;;;;;13.42;75.89;100624.59;5075800;27;45426;-78
2022/03/13 11:11:26;;;;;;;;;3.50;3.00;;;;;13.48;75.07;100627.38;5075896;27;45388;-77
2022/03/13 11:13:57;;;;;;;;;2.00;2.00;;;;;13.44;75.94;100630.72;5094219;27;45330;-81
2022/03/13 11:16:31;;;;;;;;;3.00;2.75;;;;;13.49;75.31;100636.94;5077827;27;46373;-84
2022/03/13 11:19:05;;;;;;;;;3.00;3.00;;;;;13.42;75.70;100624.59;5078622;27;45464;-81
2022/03/13 11:21:32;;;;;;;;;2.50;2.50;;;;;13.46;75.39;100635.13;5076528;28;45279;-82